createdAt,value
2022-08-08T00:02:33.227Z,0.95
2022-08-08T00:05:21.447Z,0.90
2022-08-08T00:08:24.980Z,1.08
2022-08-08T00:11:12.888Z,0.93
2022-08-08T00:14:14.840Z,1.27
2022-08-08T00:17:23.179Z,0.95
2022-08-08T00:20:01.336Z,1.25
2022-08-08T00:22:41.043Z,1.10
2022-08-08T00:25:44.878Z,0.95
2022-08-08T00:28:35.232Z,0.85
2022-08-08T00:32:29.069Z,1.10
2022-08-08T00:35:04.502Z,1.17
2022-08-08T00:38:01.213Z,1.23
2022-08-08T00:41:12.142Z,1.10
2022-08-08T00:43:29.684Z,1.10
2022-08-08T00:46:57.596Z,1.02
2022-08-08T00:49:43.134Z,1.20
2022-08-08T00:52:40.480Z,1.17
2022-08-08T00:55:36.033Z,1.20
2022-08-08T00:59:02.533Z,1.10
2022-08-08T01:01:46.712Z,1.10
2022-08-08T01:04:52.770Z,1.15
2022-08-08T01:07:54.879Z,1.00
2022-08-08T01:10:50.802Z,1.10
2022-08-08T01:14:05.598Z,1.10
2022-08-08T01:16:48.652Z,0.93
2022-08-08T01:19:52.193Z,1.10
2022-08-08T01:22:36.565Z,1.27
2022-08-08T01:25:42.831Z,1.10
2022-08-08T01:28:33.135Z,0.80
2022-08-08T01:32:05.511Z,0.88
2022-08-08T01:34:42.312Z,1.02
2022-08-08T01:37:56.364Z,1.00
2022-08-08T01:40:30.026Z,1.38
2022-08-08T01:43:24.387Z,1.10
2022-08-08T01:46:13.625Z,1.00
2022-08-08T01:48:55.207Z,0.90
2022-08-08T01:52:54.691Z,0.90
2022-08-08T01:55:19.325Z,0.93
2022-08-08T01:58:12.556Z,0.95
2022-08-08T02:03:54.571Z,1.25
2022-08-08T02:06:56.831Z,1.15
2022-08-08T02:10:01.597Z,0.88
2022-08-08T02:12:35.066Z,0.98
2022-08-08T02:15:47.536Z,0.98
2022-08-08T02:18:27.261Z,1.20
2022-08-08T02:21:34.424Z,1.08
2022-08-08T02:24:24.826Z,1.05
2022-08-08T02:27:07.607Z,1.17
2022-08-08T02:30:05.685Z,1.10
2022-08-08T02:32:50.652Z,1.13
2022-08-08T02:36:04.387Z,1.00
2022-08-08T02:38:54.935Z,1.17
2022-08-08T02:41:58.428Z,0.90
2022-08-08T02:44:59.246Z,1.20
2022-08-08T02:47:47.007Z,1.10
2022-08-08T02:50:24.504Z,1.30
2022-08-08T02:52:58.891Z,1.10
2022-08-08T02:55:47.342Z,0.88
2022-08-08T02:59:02.141Z,1.02
2022-08-08T03:01:50.270Z,0.80
2022-08-08T03:05:02.374Z,1.05
2022-08-08T03:07:24.671Z,1.08
2022-08-08T03:10:06.202Z,1.10
2022-08-08T03:13:01.879Z,1.20
2022-08-08T03:16:05.429Z,1.00
2022-08-08T03:18:59.077Z,0.93
2022-08-08T03:21:26.932Z,0.93
2022-08-08T03:24:07.211Z,1.30
2022-08-08T03:26:43.466Z,1.10
2022-08-08T03:29:20.568Z,1.40
2022-08-08T03:32:12.269Z,0.82
2022-08-08T03:34:41.208Z,1.00
2022-08-08T03:38:00.058Z,1.10
2022-08-08T03:40:03.785Z,1.30
2022-08-08T03:44:58.516Z,0.95
2022-08-08T03:47:27.830Z,1.63
2022-08-08T03:50:19.960Z,1.10
2022-08-08T03:52:51.518Z,0.77
2022-08-08T03:55:54.987Z,0.90
2022-08-08T03:58:30.415Z,0.90
2022-08-08T04:01:01.726Z,1.30
2022-08-08T04:03:59.774Z,1.00
2022-08-08T04:06:22.701Z,0.93
2022-08-08T04:08:49.701Z,0.95
2022-08-08T04:11:20.923Z,1.10
2022-08-08T04:14:03.363Z,0.90
2022-08-08T04:16:40.331Z,1.60
2022-08-08T04:19:24.990Z,1.00
2022-08-08T04:21:52.659Z,1.10
2022-08-08T04:24:28.629Z,1.27
2022-08-08T04:26:57.681Z,1.55
2022-08-08T04:29:25.356Z,1.70
2022-08-08T04:31:58.876Z,1.60
2022-08-08T04:34:31.768Z,1.70
2022-08-08T04:36:59.309Z,1.60
2022-08-08T04:40:04.349Z,1.77
2022-08-08T04:42:15.947Z,1.83
2022-08-08T04:44:47.637Z,1.50
2022-08-08T04:47:15.155Z,1.67
2022-08-08T04:49:55.956Z,1.75
2022-08-08T04:52:25.921Z,1.38
2022-08-08T04:55:01.492Z,1.65
2022-08-08T04:57:28.743Z,1.40
2022-08-08T04:59:58.052Z,2.10
2022-08-08T05:02:31.317Z,1.58
2022-08-08T05:07:37.963Z,1.42
2022-08-08T05:10:13.011Z,1.83
2022-08-08T05:12:43.074Z,1.80
2022-08-08T05:16:48.012Z,1.40
2022-08-08T05:18:13.672Z,1.92
2022-08-08T05:20:49.817Z,1.60
2022-08-08T05:23:17.881Z,1.67
2022-08-08T05:25:44.523Z,1.60
2022-08-08T05:28:13.491Z,1.52
2022-08-08T05:30:47.114Z,1.23
2022-08-08T05:33:16.958Z,1.50
2022-08-08T05:35:46.795Z,1.60
2022-08-08T05:38:30.438Z,1.88
2022-08-08T05:40:59.139Z,1.35
2022-08-08T05:44:02.522Z,1.42
2022-08-08T05:46:16.086Z,1.50
2022-08-08T05:48:43.804Z,1.30
2022-08-08T05:51:19.290Z,1.40
2022-08-08T05:54:24.205Z,1.30
2022-08-08T05:56:41.844Z,1.27
2022-08-08T05:59:59.427Z,1.20
2022-08-08T06:02:40.848Z,1.00
2022-08-08T06:05:33.743Z,1.15
2022-08-08T06:08:02.444Z,1.02
2022-08-08T06:10:39.323Z,1.20
2022-08-08T06:13:12.446Z,1.38
2022-08-08T06:18:22.301Z,1.27
2022-08-08T06:20:52.922Z,1.02
2022-08-08T06:23:48.904Z,1.10
2022-08-08T06:26:38.576Z,1.08
2022-08-08T06:29:49.207Z,1.40
2022-08-08T06:32:10.229Z,1.60
2022-08-08T06:34:52.552Z,1.27
2022-08-08T06:37:39.570Z,1.23
2022-08-08T06:40:12.126Z,1.23
2022-08-08T06:42:57.359Z,1.83
2022-08-08T06:45:24.559Z,1.50
2022-08-08T06:48:01.347Z,1.65
2022-08-08T06:50:31.408Z,1.40
2022-08-08T06:53:14.363Z,1.30
2022-08-08T06:56:02.802Z,1.73
2022-08-08T06:58:33.549Z,1.85
2022-08-08T07:01:11.662Z,1.23
2022-08-08T07:04:40.586Z,1.38
2022-08-08T07:06:45.010Z,1.38
2022-08-08T07:09:17.914Z,1.20
2022-08-08T07:11:52.059Z,1.30
2022-08-08T07:14:32.018Z,0.90
2022-08-08T07:17:09.218Z,1.60
2022-08-08T07:19:44.816Z,1.38
2022-08-08T07:22:22.204Z,1.45
2022-08-08T07:24:59.803Z,1.05
2022-08-08T07:28:00.847Z,1.48
2022-08-08T07:30:25.696Z,1.13
2022-08-08T07:32:53.219Z,1.20
2022-08-08T07:35:21.561Z,1.50
2022-08-08T07:38:04.709Z,1.52
2022-08-08T07:40:37.221Z,1.00
2022-08-08T07:43:09.642Z,1.10
2022-08-08T07:46:05.523Z,1.00
2022-08-08T07:48:24.298Z,1.10
2022-08-08T07:50:53.928Z,0.70
2022-08-08T07:54:02.765Z,0.70
2022-08-08T07:56:37.385Z,0.88
2022-08-08T07:59:14.250Z,1.00
2022-08-08T08:02:35.996Z,0.90
2022-08-08T08:04:44.238Z,0.75
2022-08-08T08:07:16.071Z,1.35
2022-08-08T08:09:42.803Z,1.52
2022-08-08T08:12:31.296Z,1.00
2022-08-08T08:15:08.533Z,1.70
2022-08-08T08:17:49.234Z,1.10
2022-08-08T08:20:30.470Z,1.13
2022-08-08T08:22:57.546Z,1.67
2022-08-08T08:25:42.350Z,1.40
2022-08-08T08:28:10.499Z,0.90
2022-08-08T08:30:43.794Z,1.00
2022-08-08T08:33:12.802Z,0.75
2022-08-08T08:36:20.281Z,1.10
2022-08-08T08:38:27.580Z,0.73
2022-08-08T08:40:54.834Z,0.77
2022-08-08T08:43:26.822Z,0.80
2022-08-08T08:45:57.282Z,1.00
2022-08-08T08:48:24.841Z,0.90
2022-08-08T08:50:53.372Z,0.73
2022-08-08T08:53:54.503Z,0.85
2022-08-08T08:56:10.690Z,0.77
2022-08-08T08:58:46.534Z,1.15
2022-08-08T09:01:19.631Z,0.90
2022-08-08T09:03:51.009Z,0.82
2022-08-08T09:06:33.979Z,0.80
2022-08-08T09:09:26.521Z,1.58
2022-08-08T09:12:07.797Z,1.50
2022-08-08T09:14:35.607Z,1.00
2022-08-08T09:17:15.732Z,0.80
2022-08-08T09:21:57.826Z,0.65
2022-08-08T09:22:31.793Z,1.00
2022-08-08T09:24:58.459Z,0.77
2022-08-08T09:27:56.166Z,0.90
2022-08-08T09:30:17.379Z,0.98
2022-08-08T09:35:37.303Z,0.80
2022-08-08T09:38:05.833Z,0.90
2022-08-08T09:40:47.719Z,0.77
2022-08-08T09:44:05.554Z,0.45
2022-08-08T09:46:30.607Z,0.63
2022-08-08T09:49:18.310Z,0.68
2022-08-08T09:52:06.678Z,0.93
2022-08-08T09:54:42.052Z,0.80
2022-08-08T09:57:17.252Z,0.68
2022-08-08T10:02:49.201Z,0.70
2022-08-08T10:05:25.181Z,0.70
2022-08-08T10:07:52.375Z,0.77
2022-08-08T10:10:38.363Z,0.60
2022-08-08T10:13:29.878Z,1.00
2022-08-08T10:16:03.818Z,2.15
2022-08-08T10:18:35.869Z,0.60
2022-08-08T10:23:58.505Z,0.80
2022-08-08T10:26:56.789Z,0.77
2022-08-08T10:29:59.244Z,0.90
2022-08-08T10:38:01.439Z,0.70
2022-08-08T10:40:32.739Z,0.55
2022-08-08T10:43:05.202Z,0.85
2022-08-08T10:45:56.774Z,0.80
2022-08-08T10:48:58.596Z,0.82
2022-08-08T10:51:26.177Z,0.82
2022-08-08T10:53:58.364Z,0.60
2022-08-08T10:56:27.355Z,1.02
2022-08-08T10:58:59.878Z,0.70
2022-08-08T11:01:33.534Z,0.90
2022-08-08T11:04:04.540Z,0.50
2022-08-08T11:06:36.591Z,0.80
2022-08-08T11:09:20.110Z,0.60
2022-08-08T11:12:05.832Z,0.70
2022-08-08T11:15:02.149Z,0.60
2022-08-08T11:17:59.718Z,0.70
2022-08-08T11:20:27.611Z,0.80
2022-08-08T11:23:05.208Z,0.70
2022-08-08T11:25:52.689Z,0.80
2022-08-08T11:28:29.507Z,0.88
2022-08-08T11:53:50.610Z,0.80
2022-08-08T11:56:25.506Z,1.10
2022-08-08T11:58:52.463Z,0.70
2022-08-08T12:01:19.200Z,0.68
2022-08-08T12:03:56.087Z,0.55
2022-08-08T12:06:26.169Z,0.63
2022-08-08T12:09:05.779Z,1.40
2022-08-08T12:11:38.854Z,1.10
2022-08-08T12:14:07.787Z,1.00
2022-08-08T12:16:48.891Z,0.80
2022-08-08T12:19:15.980Z,0.70
2022-08-08T12:21:59.823Z,0.90
2022-08-08T12:24:42.997Z,0.50
2022-08-08T12:27:18.818Z,1.13
2022-08-08T12:29:59.097Z,0.70
2022-08-08T12:32:26.042Z,0.95
2022-08-08T12:34:59.028Z,0.70
2022-08-08T12:37:41.247Z,0.73
2022-08-08T12:40:23.888Z,0.75
2022-08-08T12:42:52.210Z,0.80
2022-08-08T12:45:58.072Z,1.00
2022-08-08T12:48:35.716Z,0.90
2022-08-08T12:51:02.810Z,0.90
2022-08-08T12:53:38.006Z,0.80
2022-08-08T12:56:19.619Z,0.70
2022-08-08T12:58:54.300Z,0.98
2022-08-08T13:01:34.946Z,0.60
2022-08-08T13:04:18.312Z,0.60
2022-08-08T13:06:58.685Z,0.77
2022-08-08T13:09:33.055Z,0.65
2022-08-08T13:12:24.455Z,0.70
2022-08-08T13:14:53.738Z,0.80
2022-08-08T13:18:09.518Z,0.60
2022-08-08T13:20:18.322Z,0.50
2022-08-08T13:22:45.904Z,0.68
2022-08-08T13:25:17.874Z,0.88
2022-08-08T13:27:56.645Z,0.73
2022-08-08T13:30:28.526Z,0.70
2022-08-08T13:33:01.336Z,0.60
2022-08-08T13:35:38.653Z,0.60
2022-08-08T13:38:08.563Z,1.65
2022-08-08T13:40:41.295Z,0.90
2022-08-08T13:43:08.396Z,0.90
2022-08-08T13:45:35.306Z,0.85
2022-08-08T13:48:03.876Z,0.73
2022-08-08T13:50:50.452Z,0.70
2022-08-08T13:53:31.600Z,0.75
2022-08-08T13:56:11.637Z,0.70
2022-08-08T13:58:57.647Z,0.85
2022-08-08T14:01:42.141Z,1.00
2022-08-08T14:04:22.031Z,0.98
2022-08-08T14:06:48.943Z,0.98
2022-08-08T14:09:25.212Z,0.95
2022-08-08T14:11:59.267Z,0.70
2022-08-08T14:14:46.904Z,0.85
2022-08-08T14:17:22.682Z,0.75
2022-08-08T14:20:06.993Z,0.85
2022-08-08T14:22:42.938Z,0.90
2022-08-08T14:25:15.553Z,0.90
2022-08-08T14:28:00.015Z,0.73
2022-08-08T14:30:34.412Z,0.77
2022-08-08T14:33:01.538Z,1.00
2022-08-08T14:35:36.126Z,0.70
2022-08-08T14:38:33.440Z,0.90
2022-08-08T14:40:59.532Z,0.90
2022-08-08T14:44:02.049Z,0.98
2022-08-08T14:46:30.845Z,0.93
2022-08-08T14:49:20.100Z,1.00
2022-08-08T14:51:53.138Z,0.90
2022-08-08T14:54:29.322Z,1.00
2022-08-08T14:56:57.253Z,0.70
2022-08-08T14:59:31.419Z,1.00
2022-08-08T15:02:14.214Z,1.17
2022-08-08T15:04:42.313Z,1.35
2022-08-08T15:07:22.497Z,0.80
2022-08-08T15:09:51.524Z,1.25
2022-08-08T15:12:27.206Z,1.10
2022-08-08T15:14:54.903Z,0.88
2022-08-08T15:17:22.502Z,1.00
2022-08-08T15:19:50.511Z,1.00
2022-08-08T15:22:18.095Z,0.70
2022-08-08T15:24:51.023Z,0.68
2022-08-08T15:28:03.548Z,0.82
2022-08-08T15:30:06.121Z,0.90
2022-08-08T15:32:39.091Z,1.00
2022-08-08T15:35:07.312Z,0.82
2022-08-08T15:37:34.201Z,1.02
2022-08-08T15:40:01.082Z,1.10
2022-08-08T15:42:32.493Z,0.80
2022-08-08T15:45:00.917Z,0.90
2022-08-08T15:47:27.987Z,0.98
2022-08-08T15:49:58.072Z,0.70
2022-08-08T15:52:25.009Z,0.75
2022-08-08T15:54:53.698Z,0.85
2022-08-08T15:57:21.868Z,0.93
2022-08-08T16:00:05.341Z,0.90
2022-08-08T16:02:36.406Z,0.98
2022-08-08T16:05:04.195Z,1.00
2022-08-08T16:07:52.136Z,0.90
2022-08-08T16:13:03.739Z,0.80
2022-08-08T16:13:29.409Z,0.80
2022-08-08T16:15:57.725Z,0.90
2022-08-08T16:18:27.804Z,0.68
2022-08-08T16:21:00.239Z,0.77
2022-08-08T16:23:32.190Z,1.20
2022-08-08T16:26:04.811Z,0.80
2022-08-08T16:28:43.987Z,0.80
2022-08-08T16:31:12.323Z,0.80
2022-08-08T16:33:40.357Z,0.93
2022-08-08T16:36:15.564Z,0.90
2022-08-08T16:38:47.603Z,1.40
2022-08-08T16:41:22.533Z,0.82
2022-08-08T16:43:51.324Z,0.88
2022-08-08T16:46:38.899Z,0.85
2022-08-08T16:49:08.738Z,1.33
2022-08-08T16:55:01.398Z,0.80
2022-08-08T16:55:22.898Z,0.68
2022-08-08T16:57:23.253Z,1.17
2022-08-08T17:00:06.191Z,0.80
2022-08-08T17:02:39.181Z,2.22
2022-08-08T17:05:08.524Z,0.73
2022-08-08T17:07:37.898Z,0.52
2022-08-08T17:10:08.548Z,1.03
2022-08-08T17:12:36.802Z,1.33
2022-08-08T17:15:17.411Z,0.80
2022-08-08T17:18:02.291Z,0.77
2022-08-08T17:20:31.440Z,0.63
2022-08-08T17:23:18.449Z,1.05
2022-08-08T17:25:52.090Z,0.80
2022-08-08T17:28:34.618Z,0.73
2022-08-08T17:31:39.130Z,0.70
2022-08-08T17:34:53.341Z,0.88
2022-08-08T17:36:55.044Z,0.55
2022-08-08T17:40:04.101Z,0.80
2022-08-08T17:42:13.384Z,0.60
2022-08-08T17:44:44.455Z,0.80
2022-08-08T17:47:24.385Z,0.87
2022-08-08T17:50:01.476Z,0.70
2022-08-08T17:52:30.057Z,0.95
2022-08-08T17:54:57.375Z,1.02
2022-08-08T17:57:24.725Z,0.80
2022-08-08T18:02:29.313Z,0.88
2022-08-08T18:04:58.574Z,0.85
2022-08-08T18:08:04.011Z,1.05
2022-08-08T18:10:15.323Z,0.88
2022-08-08T18:12:44.350Z,0.82
2022-08-08T18:15:12.903Z,0.95
2022-08-08T18:18:05.450Z,1.55
2022-08-08T18:20:37.164Z,0.65
2022-08-08T18:23:14.636Z,0.93
2022-08-08T18:25:42.914Z,1.30
2022-08-08T18:28:13.022Z,0.60
2022-08-08T18:30:43.996Z,0.93
2022-08-08T18:33:36.817Z,0.90
2022-08-08T18:36:03.238Z,0.90
2022-08-08T18:38:32.190Z,1.00
2022-08-08T18:41:00.991Z,1.10
2022-08-08T18:43:37.977Z,0.90
2022-08-08T18:46:56.302Z,1.13
2022-08-08T18:48:57.940Z,1.10
2022-08-08T18:51:48.345Z,1.20
2022-08-08T18:54:21.891Z,0.90
2022-08-08T18:56:50.102Z,0.90
2022-08-08T18:59:17.244Z,0.80
2022-08-08T19:02:25.117Z,0.90
2022-08-08T19:04:31.243Z,0.80
2022-08-08T19:06:57.868Z,0.80
2022-08-08T19:09:49.071Z,0.80
2022-08-08T19:12:13.421Z,1.10
2022-08-08T19:14:40.302Z,0.93
2022-08-08T19:17:10.807Z,1.00
2022-08-08T19:19:37.812Z,1.30
2022-08-08T19:22:11.135Z,1.38
2022-08-08T19:24:43.223Z,1.02
2022-08-08T19:27:56.408Z,1.10
2022-08-08T19:30:24.201Z,1.08
2022-08-08T19:32:51.456Z,1.33
2022-08-08T19:35:20.089Z,1.10
2022-08-08T19:37:57.631Z,1.30
2022-08-08T19:40:31.141Z,1.30
2022-08-08T19:42:59.431Z,1.45
2022-08-08T19:45:59.253Z,1.30
2022-08-08T19:48:31.029Z,1.40
2022-08-08T19:51:00.822Z,2.00
2022-08-08T19:53:53.830Z,1.80
2022-08-08T19:56:16.523Z,1.80
2022-08-08T19:59:01.672Z,1.90
2022-08-08T20:01:50.263Z,1.63
2022-08-08T20:04:16.280Z,1.65
2022-08-08T20:06:43.787Z,1.88
2022-08-08T20:09:15.925Z,1.85
2022-08-08T20:11:49.682Z,2.10
2022-08-08T20:14:34.053Z,1.77
2022-08-08T20:17:02.746Z,1.98
2022-08-08T20:19:34.574Z,2.08
2022-08-08T20:22:13.289Z,1.63
2022-08-08T20:24:48.006Z,2.00
2022-08-08T20:27:20.178Z,1.80
2022-08-08T20:29:56.010Z,2.10
2022-08-08T20:32:28.550Z,2.30
2022-08-08T20:35:01.177Z,2.17
2022-08-08T20:37:47.071Z,1.90
2022-08-08T20:40:17.155Z,2.45
2022-08-08T20:42:54.765Z,2.20
2022-08-08T20:45:23.373Z,2.00
2022-08-08T20:48:09.463Z,2.30
2022-08-08T20:50:36.481Z,2.03
2022-08-08T20:53:06.831Z,2.17
2022-08-08T20:55:45.336Z,2.20
2022-08-08T20:58:23.141Z,1.98
2022-08-08T21:00:50.760Z,2.20
2022-08-08T21:03:17.472Z,2.45
2022-08-08T21:05:59.123Z,2.53
2022-08-08T21:08:37.137Z,2.20
2022-08-08T21:11:13.427Z,2.38
2022-08-08T21:13:41.294Z,2.45
2022-08-08T21:16:18.214Z,2.58
2022-08-08T21:18:57.170Z,2.65
2022-08-08T21:21:39.858Z,2.40
2022-08-08T21:24:22.277Z,2.63
2022-08-08T21:26:53.853Z,2.90
2022-08-08T21:29:21.634Z,2.45
2022-08-08T21:31:58.503Z,2.60
2022-08-08T21:34:29.904Z,2.38
2022-08-08T21:36:58.311Z,2.47
2022-08-08T21:39:41.548Z,2.50
2022-08-08T21:42:11.867Z,2.60
2022-08-08T21:44:38.596Z,2.30
2022-08-08T21:48:06.684Z,2.40
2022-08-08T21:50:11.837Z,2.75
2022-08-08T21:54:31.446Z,2.83
2022-08-08T21:56:27.015Z,2.88
2022-08-08T21:58:13.790Z,2.50
2022-08-08T22:00:41.109Z,2.97
2022-08-08T22:03:07.857Z,2.70
2022-08-08T22:05:41.572Z,2.30
2022-08-08T22:08:08.747Z,2.60
2022-08-08T22:10:35.685Z,2.42
2022-08-08T22:13:17.554Z,2.58
2022-08-08T22:15:59.721Z,2.63
2022-08-08T22:18:32.608Z,2.60
2022-08-08T22:21:10.610Z,2.35
2022-08-08T22:23:50.403Z,2.80
2022-08-08T22:26:29.928Z,2.70
2022-08-08T22:29:13.060Z,2.67
2022-08-08T22:32:02.348Z,2.70
2022-08-08T22:34:31.966Z,2.70
2022-08-08T22:36:59.577Z,2.88
2022-08-08T22:39:39.374Z,2.53
2022-08-08T22:42:14.517Z,2.50
2022-08-08T22:44:54.455Z,2.58
2022-08-08T22:47:21.118Z,3.08
2022-08-08T22:49:54.154Z,2.72
2022-08-08T22:52:33.546Z,2.90
2022-08-08T22:55:04.895Z,2.72
2022-08-08T22:57:44.382Z,2.92
2022-08-08T23:00:16.649Z,2.60
2022-08-08T23:02:49.927Z,2.42
2022-08-08T23:05:17.111Z,2.70
2022-08-08T23:07:51.908Z,2.60
2022-08-08T23:10:25.520Z,2.58
2022-08-08T23:12:54.396Z,2.65
2022-08-08T23:16:41.109Z,2.97
2022-08-08T23:18:11.823Z,2.75
2022-08-08T23:20:39.951Z,2.72
2022-08-08T23:23:06.478Z,2.83
2022-08-08T23:25:33.486Z,2.80
2022-08-08T23:28:12.087Z,2.80
2022-08-08T23:30:38.652Z,2.42
2022-08-08T23:33:19.273Z,2.95
2022-08-08T23:36:07.489Z,2.70
2022-08-08T23:38:34.787Z,2.35
2022-08-08T23:41:02.422Z,2.60
2022-08-08T23:43:45.926Z,2.80
2022-08-08T23:49:02.364Z,2.70
2022-08-08T23:49:14.918Z,2.65
2022-08-08T23:52:04.923Z,2.60
2022-08-08T23:54:43.053Z,2.50
2022-08-08T23:57:27.174Z,2.45
